Time;durP1;ratioP1;P1;durP2;ratioP2;P2;SDS_P1;SDS_P2;PMS_P1;PMS_P2;Temp;Humidity;BMP_temperature;BMP_pressure;BME280_temperature;BME280_humidity;BME280_pressure;Samples;Min_cycle;Max_cycle;Signal;HPM_P1;HPM_P2
2022/10/15 00:01:45;;;;;;;20.50;16.73;;;;;;;9.11;100.00;100764.44;5016264;28;20037;-81
2022/10/15 00:04:10;;;;;;;21.42;16.20;;;;;;;8.97;100.00;100748.97;5034064;28;20392;-77
2022/10/15 00:06:35;;;;;;;20.45;15.25;;;;;;;9.04;100.00;100763.97;5033864;28;20485;-83
2022/10/15 00:09:01;;;;;;;22.30;16.75;;;;;;;8.92;100.00;100751.78;5034000;28;20036;-77
2022/10/15 00:11:27;;;;;;;25.60;18.50;;;;;;;9.01;100.00;100771.88;5032844;28;20029;-77
2022/10/15 00:13:56;;;;;;;23.30;17.85;;;;;;;9.02;100.00;100772.69;5033655;28;20029;-84
2022/10/15 00:16:23;;;;;;;25.23;19.08;;;;;;;8.92;100.00;100759.53;5033395;28;20160;-77
2022/10/15 00:18:50;;;;;;;24.20;17.20;;;;;;;9.05;100.00;100764.81;5033436;28;20022;-81
2022/10/15 00:21:17;;;;;;;27.42;20.02;;;;;;;8.98;100.00;100754.03;5033490;28;20025;-83
2022/10/15 00:23:43;;;;;;;27.58;19.00;;;;;;;9.02;100.00;100762.41;5033523;28;20025;-77
2022/10/15 00:26:11;;;;;;;25.13;19.38;;;;;;;9.03;100.00;100770.03;5033693;28;20500;-80
2022/10/15 00:28:37;;;;;;;25.40;19.77;;;;;;;9.08;100.00;100770.63;5033566;28;20035;-79
2022/10/15 00:31:10;;;;;;;26.30;19.85;;;;;;;9.14;100.00;100770.28;5015716;28;20456;-82
2022/10/15 00:33:36;;;;;;;27.60;20.45;;;;;;;9.20;100.00;100766.50;5033745;28;20021;-79
2022/10/15 00:36:06;;;;;;;27.80;21.27;;;;;;;9.28;100.00;100774.63;5033294;28;20026;-79
2022/10/15 00:38:32;;;;;;;29.58;21.17;;;;;;;9.37;100.00;100774.06;5033418;28;20041;-81
2022/10/15 00:40:58;;;;;;;28.60;20.92;;;;;;;9.33;100.00;100751.97;5033265;28;20021;-82
2022/10/15 00:43:38;;;;;;;28.95;21.70;;;;;;;9.24;100.00;100721.59;5033396;28;20025;-79
2022/10/15 00:46:05;;;;;;;29.70;21.13;;;;;;;9.59;100.00;100772.81;5032813;28;20049;-80
2022/10/15 00:48:31;;;;;;;29.90;21.05;;;;;;;9.67;100.00;100778.34;5033429;28;20044;-82
2022/10/15 00:50:59;;;;;;;29.92;20.55;;;;;;;9.72;100.00;100774.53;5033307;28;20470;-79
2022/10/15 00:53:24;;;;;;;30.05;21.25;;;;;;;9.62;100.00;100751.97;5033112;28;20029;-77
2022/10/15 00:55:50;;;;;;;28.42;20.88;;;;;;;9.84;100.00;100778.16;5033082;28;20021;-79
2022/10/15 00:58:27;;;;;;;29.35;20.38;;;;;;;9.90;100.00;100776.94;5032898;28;20500;-80
2022/10/15 01:00:53;;;;;;;27.23;20.15;;;;;;;9.92;100.00;100770.75;5033307;28;20396;-81
2022/10/15 01:03:19;;;;;;;31.63;20.23;;;;;;;9.94;100.00;100766.34;5033308;28;20025;-82
2022/10/15 01:05:48;;;;;;;31.92;20.52;;;;;;;9.78;100.00;100750.16;5032933;28;20484;-83
2022/10/15 01:08:13;;;;;;;31.73;20.83;;;;;;;9.97;100.00;100771.31;5033118;28;20389;-81
2022/10/15 01:10:59;;;;;;;33.53;22.10;;;;;;;9.85;100.00;100728.22;5033118;28;20052;-77
2022/10/15 01:13:48;;;;;;;31.08;21.58;;;;;;;10.11;100.00;100759.31;5033004;28;20033;-84
2022/10/15 01:16:36;;;;;;;39.35;26.67;;;;;;;10.22;100.00;100762.06;5033232;28;20022;-77
2022/10/15 01:19:51;;;;;;;37.75;25.20;;;;;;;10.15;100.00;100728.06;4972088;28;20478;-80
2022/10/15 01:22:28;;;;;;;40.80;27.92;;;;;;;10.27;100.00;100729.06;4974124;28;20045;-79
2022/10/15 01:25:11;;;;;;;43.78;28.58;;;;;;;10.46;100.00;100742.47;4975948;28;20189;-81
2022/10/15 01:27:46;;;;;;;45.67;29.67;;;;;;;10.38;100.00;100712.91;4975762;28;20118;-76
2022/10/15 01:30:30;;;;;;;51.20;31.55;;;;;;;10.57;100.00;100734.88;4976026;28;20125;-78
2022/10/15 01:33:10;;;;;;;47.22;31.05;;;;;;;10.62;100.00;100732.00;4975921;28;20052;-81
2022/10/15 01:35:41;;;;;;;47.28;31.05;;;;;;;10.66;100.00;100724.88;4975832;28;20034;-82
2022/10/15 01:38:54;;;;;;;48.40;31.50;;;;;;;10.68;100.00;100729.00;4975766;28;20426;-77
2022/10/15 01:41:41;;;;;;;50.85;32.47;;;;;;;10.74;100.00;100717.47;4937104;29;20365;-77
2022/10/15 01:44:12;;;;;;;49.47;31.95;;;;;;;10.77;100.00;100730.16;4936975;29;20035;-79
2022/10/15 01:47:00;;;;;;;;;;;;;;;10.79;100.00;100738.63;4937437;29;20027;-77
2022/10/15 01:49:31;;;;;;;50.97;31.83;;;;;;;10.70;100.00;100721.97;4880487;29;19940;-77
2022/10/15 01:52:01;;;;;;;48.95;32.83;;;;;;;10.71;100.00;100713.31;4880304;29;20085;-80
2022/10/15 01:54:27;;;;;;;46.25;32.97;;;;;;;10.89;100.00;100729.34;4880427;29;20067;-81
2022/10/15 01:56:54;;;;;;;49.35;32.65;;;;;;;10.91;100.00;100723.19;4895238;29;20120;-80
2022/10/15 01:59:26;;;;;;;50.28;34.10;;;;;;;10.93;100.00;100730.81;4899064;29;20036;-79
2022/10/15 02:01:51;;;;;;;50.40;33.78;;;;;;;10.80;100.00;100701.53;4899114;29;20089;-76
2022/10/15 02:04:21;;;;;;;48.22;33.15;;;;;;;10.89;100.00;100708.69;4898838;29;20393;-81
2022/10/15 02:06:54;;;;;;;51.95;33.85;;;;;;;10.98;100.00;100715.00;4898763;29;20067;-78
2022/10/15 02:09:28;;;;;;;46.53;32.53;;;;;;;11.03;100.00;100713.78;4898951;29;20059;-79
2022/10/15 02:12:16;;;;;;;48.92;33.17;;;;;;;10.96;100.00;100701.38;4898941;29;20045;-82
2022/10/15 02:14:58;;;;;;;46.35;31.83;;;;;;;11.06;100.00;100713.56;4912783;29;20050;-78
2022/10/15 02:18:04;;;;;;;48.60;33.17;;;;;;;11.05;100.00;100700.75;4955657;29;20506;-79
2022/10/15 02:20:41;;;;;;;46.45;31.98;;;;;;;11.06;100.00;100697.25;4955638;29;20122;-79
2022/10/15 02:23:14;;;;;;;46.53;31.85;;;;;;;10.98;100.00;100682.25;4955466;29;20067;-79
2022/10/15 02:25:44;;;;;;;46.47;33.35;;;;;;;11.10;100.00;100703.84;4970171;28;20029;-78
2022/10/15 02:28:11;;;;;;;45.78;32.60;;;;;;;11.06;100.00;100697.25;5035790;28;20022;-80
2022/10/15 02:30:39;;;;;;;45.72;32.10;;;;;;;10.90;100.00;100681.91;5035732;28;20122;-77
2022/10/15 02:33:05;;;;;;;44.17;31.38;;;;;;;10.98;100.00;100707.25;5034972;28;20100;-77
2022/10/15 02:35:31;;;;;;;46.83;32.30;;;;;;;10.95;100.00;100697.97;5035860;28;20481;-82
2022/10/15 02:38:03;;;;;;;45.90;31.70;;;;;;;10.95;100.00;100694.56;5035278;28;20030;-77
2022/10/15 02:40:33;;;;;;;44.63;32.72;;;;;;;10.97;100.00;100690.94;5035694;28;20503;-79
2022/10/15 02:42:58;;;;;;;46.08;34.20;;;;;;;10.84;100.00;100659.09;5035459;28;20474;-82
2022/10/15 02:45:24;;;;;;;48.40;33.20;;;;;;;10.98;100.00;100665.91;5035212;28;20073;-84
2022/10/15 02:47:49;;;;;;;46.78;33.22;;;;;;;11.01;100.00;100669.13;5017469;28;20046;-81
2022/10/15 02:50:14;;;;;;;49.85;35.38;;;;;;;11.03;100.00;100666.44;5035282;28;20111;-80
2022/10/15 02:52:40;;;;;;;51.08;34.13;;;;;;;11.03;100.00;100669.84;5035125;28;20125;-76
2022/10/15 02:55:05;;;;;;;47.15;32.72;;;;;;;11.04;100.00;100668.94;5035196;28;20026;-82
2022/10/15 02:57:34;;;;;;;48.08;33.90;;;;;;;10.95;100.00;100646.28;5035083;28;20041;-81
2022/10/15 02:59:59;;;;;;;47.10;33.40;;;;;;;11.03;100.00;100656.94;5035291;28;20025;-80
2022/10/15 03:02:24;;;;;;;48.58;33.88;;;;;;;10.99;100.00;100641.72;5035075;28;20389;-80
2022/10/15 03:04:50;;;;;;;47.35;33.47;;;;;;;11.04;100.00;100648.25;5035031;28;20029;-81
2022/10/15 03:07:15;;;;;;;52.30;34.05;;;;;;;11.06;100.00;100646.38;5034817;28;20065;-79
2022/10/15 03:09:40;;;;;;;51.33;34.10;;;;;;;11.08;100.00;100646.28;5034939;28;20056;-81
2022/10/15 03:12:06;;;;;;;47.83;32.92;;;;;;;10.75;100.00;100601.13;5035083;28;20029;-80
2022/10/15 03:14:31;;;;;;;46.10;32.70;;;;;;;11.05;100.00;100649.06;5010378;23;20061;-79
2022/10/15 03:16:56;;;;;;;48.92;33.25;;;;;;;11.03;100.00;100641.44;5030731;28;20029;-80
2022/10/15 03:19:22;;;;;;;44.58;32.10;;;;;;;11.01;100.00;100647.63;5035131;28;20112;-78
2022/10/15 03:21:47;;;;;;;46.50;33.13;;;;;;;11.02;100.00;100652.69;5034654;28;20022;-77
2022/10/15 03:24:12;;;;;;;48.38;32.60;;;;;;;10.99;100.00;100649.47;5034535;28;20091;-78
2022/10/15 03:26:38;;;;;;;47.15;32.63;;;;;;;10.81;100.00;100631.69;5035179;28;20029;-80
2022/10/15 03:29:03;;;;;;;45.10;32.40;;;;;;;10.80;100.00;100640.38;5034683;28;20049;-77
2022/10/15 03:31:28;;;;;;;47.58;32.95;;;;;;;10.93;100.00;100658.50;5034579;28;20025;-82
2022/10/15 03:33:54;;;;;;;51.40;33.70;;;;;;;10.94;100.00;100646.41;5034475;28;20041;-84
2022/10/15 03:36:19;;;;;;;52.40;34.28;;;;;;;10.95;100.00;100658.38;5017063;28;20076;-83
2022/10/15 03:38:44;;;;;;;48.63;34.25;;;;;;;10.91;100.00;100642.25;5034526;28;20029;-82
2022/10/15 03:41:09;;;;;;;52.55;34.90;;;;;;;10.97;100.00;100644.41;5034402;28;20504;-83
2022/10/15 03:43:35;;;;;;;54.83;34.67;;;;;;;10.96;100.00;100642.78;5034760;28;20029;-76
2022/10/15 03:46:02;;;;;;;55.17;34.97;;;;;;;10.96;100.00;100647.13;5034554;28;20022;-84
2022/10/15 03:48:28;;;;;;;49.40;34.17;;;;;;;10.89;100.00;100629.44;5034302;28;20029;-83
2022/10/15 03:50:53;;;;;;;53.38;35.03;;;;;;;11.00;100.00;100631.28;5035124;28;20034;-79
2022/10/15 03:53:18;;;;;;;53.80;34.75;;;;;;;11.01;100.00;100635.56;5035915;28;20018;-83
2022/10/15 03:55:43;;;;;;;57.13;36.35;;;;;;;10.82;100.00;100601.56;5034267;28;20072;-83
2022/10/15 03:58:09;;;;;;;54.58;34.22;;;;;;;11.00;100.00;100636.44;5034476;28;20021;-84
2022/10/15 04:00:34;;;;;;;54.10;35.92;;;;;;;10.98;100.00;100627.16;5034206;28;20516;-82
2022/10/15 04:02:59;;;;;;;58.47;34.97;;;;;;;10.82;100.00;100606.72;5033839;28;20053;-82
2022/10/15 04:05:25;;;;;;;52.17;33.83;;;;;;;10.89;100.00;100626.84;5033999;28;20481;-81
2022/10/15 04:07:50;;;;;;;51.60;33.35;;;;;;;10.87;100.00;100622.72;5033860;28;20060;-84
2022/10/15 04:10:15;;;;;;;51.58;33.35;;;;;;;10.68;100.00;100602.47;5034085;28;20408;-84
2022/10/15 04:12:41;;;;;;;53.63;33.13;;;;;;;10.73;100.00;100625.41;5033873;28;20108;-84
2022/10/15 04:15:07;;;;;;;57.30;34.17;;;;;;;10.69;100.00;100624.78;5033680;28;20041;-83
2022/10/15 04:17:32;;;;;;;56.95;34.90;;;;;;;10.78;100.00;100642.25;5015608;28;20458;-82
2022/10/15 04:19:57;;;;;;;59.70;33.85;;;;;;;10.81;100.00;100638.63;5033333;28;20049;-79
2022/10/15 04:22:23;;;;;;;57.10;34.28;;;;;;;10.79;100.00;100643.91;4999083;28;20111;-82
2022/10/15 04:24:48;;;;;;;61.47;33.30;;;;;;;10.87;100.00;100656.31;5033299;28;20169;-82
2022/10/15 04:27:14;;;;;;;64.80;33.85;;;;;;;10.92;100.00;100654.25;5033636;28;20040;-83
2022/10/15 04:29:39;;;;;;;61.17;34.80;;;;;;;10.97;100.00;100656.50;5033564;28;20068;-84
2022/10/15 04:32:05;;;;;;;66.63;34.53;;;;;;;11.04;100.00;100652.59;5015551;28;20041;-83
2022/10/15 04:34:30;;;;;;;68.03;34.85;;;;;;;11.06;100.00;100637.81;5033420;28;20053;-81
2022/10/15 04:36:55;;;;;;;66.15;34.83;;;;;;;11.00;100.00;100614.97;5033264;28;20074;-83
2022/10/15 04:39:21;;;;;;;74.97;39.08;;;;;;;11.12;100.00;100627.88;5015820;28;20102;-82
2022/10/15 04:41:46;;;;;;;76.03;36.85;;;;;;;11.12;100.00;100616.72;5015618;28;20114;-83
2022/10/15 04:44:12;;;;;;;75.85;35.67;;;;;;;11.33;100.00;100642.84;5033341;28;20044;-82
2022/10/15 04:46:37;;;;;;;87.47;40.20;;;;;;;11.40;100.00;100637.13;5033038;28;20108;-82
2022/10/15 04:49:03;;;;;;;81.97;38.60;;;;;;;11.44;100.00;100641.16;5033239;28;20473;-82
2022/10/15 04:51:30;;;;;;;82.80;36.80;;;;;;;11.46;100.00;100641.06;5033090;28;20061;-83
2022/10/15 04:53:56;;;;;;;73.40;36.50;;;;;;;11.50;100.00;100642.50;5032902;28;20025;-83
2022/10/15 04:56:21;;;;;;;76.25;35.88;;;;;;;11.31;100.00;100603.38;5032731;28;20105;-78
2022/10/15 04:58:48;;;;;;;75.30;34.30;;;;;;;11.57;100.00;100637.72;5032832;28;20030;-79
2022/10/15 05:01:17;;;;;;;76.50;36.47;;;;;;;11.59;100.00;100641.84;5033170;28;20021;-80
2022/10/15 05:03:44;;;;;;;73.57;34.35;;;;;;;11.48;100.00;100624.50;5033085;28;20038;-81
2022/10/15 05:06:12;;;;;;;72.60;34.15;;;;;;;11.63;100.00;100640.72;5033064;28;20025;-84
2022/10/15 05:08:40;;;;;;;67.07;32.42;;;;;;;11.66;100.00;100642.25;5032854;28;20029;-80
2022/10/15 05:11:26;;;;;;;67.15;34.72;;;;;;;11.69;100.00;100637.69;5033016;28;20115;-81
2022/10/15 05:13:54;;;;;;;63.78;33.00;;;;;;;11.62;100.00;100628.72;5032538;28;20382;-82
2022/10/15 05:16:22;;;;;;;62.83;33.33;;;;;;;11.71;100.00;100642.78;5015211;28;20033;-81
2022/10/15 05:18:50;;;;;;;60.22;31.48;;;;;;;11.71;100.00;100646.19;5032803;28;20445;-83
2022/10/15 05:21:19;;;;;;;59.95;30.60;;;;;;;11.59;100.00;100623.75;5032950;28;20029;-84
2022/10/15 05:23:46;;;;;;;58.72;31.20;;;;;;;11.73;100.00;100639.13;5033001;28;20033;-83
2022/10/15 05:26:15;;;;;;;57.42;30.17;;;;;;;11.66;100.00;100635.31;5032608;28;20026;-81
2022/10/15 05:28:41;;;;;;;57.97;30.55;;;;;;;11.75;100.00;100645.03;5015144;28;20037;-82
2022/10/15 05:31:08;;;;;;;50.90;27.67;;;;;;;11.77;100.00;100655.25;5032841;28;20480;-81
2022/10/15 05:33:34;;;;;;;52.33;29.30;;;;;;;11.79;100.00;100655.97;5032776;28;20095;-83
2022/10/15 05:36:17;;;;;;;49.58;27.08;;;;;;;11.60;100.00;100614.22;5015214;28;20469;-80
2022/10/15 05:38:44;;;;;;;50.33;26.77;;;;;;;11.76;100.00;100643.25;5014932;28;20503;-83
2022/10/15 05:41:10;;;;;;;48.17;25.85;;;;;;;11.82;100.00;100648.03;5032751;28;20381;-84
2022/10/15 05:43:36;;;;;;;47.58;26.30;;;;;;;11.81;100.00;100642.97;5032691;28;20026;-79
2022/10/15 05:46:01;;;;;;;45.85;27.38;;;;;;;11.82;100.00;100640.28;5014890;28;20055;-83
2022/10/15 05:48:26;;;;;;;46.35;26.67;;;;;;;11.75;100.00;100636.44;5032576;28;20026;-76
2022/10/15 05:50:52;;;;;;;42.65;25.25;;;;;;;11.84;100.00;100648.75;5032902;28;20030;-81
2022/10/15 05:53:17;;;;;;;51.17;27.80;;;;;;;11.86;100.00;100640.88;5014464;28;20505;-81
2022/10/15 05:55:43;;;;;;;49.45;28.23;;;;;;;11.71;100.00;100620.31;5032053;28;20022;-78
2022/10/15 05:58:08;;;;;;;51.63;27.38;;;;;;;11.86;100.00;100641.69;5032571;28;20089;-81
2022/10/15 06:00:35;;;;;;;48.65;28.45;;;;;;;11.87;100.00;100643.34;5014742;28;20038;-79
2022/10/15 06:03:00;;;;;;;46.47;25.67;;;;;;;11.73;100.00;100615.84;5032383;28;20083;-79
2022/10/15 06:05:26;;;;;;;45.30;25.55;;;;;;;11.75;100.00;100624.31;5032467;28;20037;-82
2022/10/15 06:07:51;;;;;;;49.60;26.88;;;;;;;11.87;100.00;100637.34;5014716;28;20385;-78
2022/10/15 06:10:17;;;;;;;51.72;29.23;;;;;;;11.87;100.00;100639.94;5017665;28;20126;-81
2022/10/15 06:12:49;;;;;;;47.28;25.67;;;;;;;11.71;100.00;100622.06;5035884;28;20036;-82
2022/10/15 06:15:15;;;;;;;47.72;26.00;;;;;;;11.81;100.00;100632.63;5035683;28;20049;-78
2022/10/15 06:17:40;;;;;;;46.90;26.10;;;;;;;11.88;100.00;100639.00;5035612;28;20026;-77
2022/10/15 06:20:06;;;;;;;49.38;25.67;;;;;;;11.73;100.00;100615.84;5035818;28;20028;-74
2022/10/15 06:22:31;;;;;;;45.40;25.85;;;;;;;11.88;100.00;100639.00;5035908;28;20033;-80
2022/10/15 06:24:56;;;;;;;42.38;25.58;;;;;;;11.91;100.00;100634.44;5017914;28;20071;-77
2022/10/15 06:27:21;;;;;;;50.55;25.85;;;;;;;11.94;100.00;100641.97;5035843;28;20063;-76
2022/10/15 06:29:47;;;;;;;46.65;25.55;;;;;;;11.97;100.00;100640.94;5035791;28;20049;-82
2022/10/15 06:32:12;;;;;;;45.83;25.13;;;;;;;12.00;100.00;100638.97;5035553;28;20389;-82
2022/10/15 06:34:37;;;;;;;44.42;25.25;;;;;;;12.05;100.00;100641.22;5035700;28;20034;-79
2022/10/15 06:37:03;;;;;;;44.67;25.90;;;;;;;12.09;100.00;100646.97;5035415;28;20092;-75
2022/10/15 06:39:28;;;;;;;44.05;25.33;;;;;;;11.92;100.00;100607.63;5035663;28;20025;-71
2022/10/15 06:41:53;;;;;;;44.10;25.92;;;;;;;12.05;100.00;100620.50;5035249;28;20424;-78
2022/10/15 06:44:19;;;;;;;43.60;25.38;;;;;;;12.17;100.00;100640.31;5017655;28;20120;-77
2022/10/15 06:46:44;;;;;;;50.58;27.92;;;;;;;12.17;100.00;100634.31;5035566;28;20087;-83
2022/10/15 06:49:09;;;;;;;42.35;25.50;;;;;;;12.22;100.00;100638.22;5035345;28;20036;-82
2022/10/15 06:51:36;;;;;;;48.38;26.92;;;;;;;12.20;100.00;100631.53;5035234;28;20017;-84
2022/10/15 06:54:02;;;;;;;45.90;27.25;;;;;;;12.20;100.00;100629.75;5035350;28;20021;-82
2022/10/15 06:56:27;;;;;;;49.42;27.80;;;;;;;12.07;100.00;100613.44;5035226;28;20032;-75
2022/10/15 06:58:53;;;;;;;50.55;29.80;;;;;;;12.22;100.00;100640.00;5035283;28;20465;-81
2022/10/15 07:01:18;;;;;;;49.53;29.70;;;;;;;12.30;100.00;100650.63;5017278;28;20037;-74
2022/10/15 07:03:43;;;;;;;51.97;31.00;;;;;;;12.20;100.00;100629.75;5033691;28;20021;-75
2022/10/15 07:06:09;;;;;;;54.60;31.08;;;;;;;12.20;100.00;100616.81;5035443;28;20032;-72
2022/10/15 07:08:35;;;;;;;53.00;31.10;;;;;;;12.43;100.00;100650.56;5035133;28;20457;-77
2022/10/15 07:11:02;;;;;;;56.10;32.38;;;;;;;12.42;100.00;100636.78;5034718;28;20461;-77
2022/10/15 07:13:29;;;;;;;51.33;30.00;;;;;;;12.43;100.00;100627.25;5034897;28;20095;-84
2022/10/15 07:15:54;;;;;;;48.47;29.98;;;;;;;12.55;100.00;100634.91;5035090;28;20025;-83
2022/10/15 07:18:20;;;;;;;52.58;31.80;;;;;;;12.56;100.00;100633.16;5034538;28;20112;-82
2022/10/15 07:20:46;;;;;;;50.42;30.20;;;;;;;12.64;100.00;100649.78;5034319;28;20032;-81
2022/10/15 07:23:11;;;;;;;47.30;28.95;;;;;;;12.61;100.00;100651.78;5016608;28;20037;-80
2022/10/15 07:25:37;;;;;;;43.97;28.08;;;;;;;12.40;100.00;100627.47;5034549;28;20082;-78
2022/10/15 07:28:03;;;;;;;47.42;29.33;;;;;;;12.51;100.00;100643.88;5016876;28;20036;-85
2022/10/15 07:30:29;;;;;;;44.10;28.70;;;;;;;12.66;100.00;100647.06;5034621;28;20036;-75
2022/10/15 07:32:56;;;;;;;45.15;27.85;;;;;;;12.74;100.00;100626.59;5034484;28;20385;-85
2022/10/15 07:35:21;;;;;;;46.47;26.73;;;;;;;12.80;100.00;100599.41;5034366;28;20108;-82
2022/10/15 07:37:46;;;;;;;39.83;25.17;;;;;;;13.06;100.00;100613.78;5034760;28;20168;-83
2022/10/15 07:40:12;;;;;;;41.25;25.15;;;;;;;13.25;100.00;100620.19;5035390;28;20021;-84
2022/10/15 07:42:39;;;;;;;37.67;23.70;;;;;;;13.27;100.00;100621.69;5034412;28;20088;-77
2022/10/15 07:45:05;;;;;;;34.95;23.30;;;;;;;12.97;100.00;100582.56;5016807;28;20018;-82
2022/10/15 07:47:31;;;;;;;36.58;22.42;;;;;;;13.10;100.00;100616.97;5034104;28;20096;-88
2022/10/15 07:52:27;;;;;;;34.63;21.08;;;;;;;12.04;100.00;100445.47;5098959;22;20407;-79
2022/10/15 07:54:59;;;;;;;32.83;20.88;;;;;;;12.46;100.00;100498.34;5094316;28;20028;-79
2022/10/15 07:57:24;;;;;;;;;;;;;;;13.26;100.00;100617.47;5094511;28;20035;-81
2022/10/15 07:59:49;;;;;;;33.15;20.25;;;;;;;13.16;100.00;100601.75;5094178;28;20363;-81
2022/10/15 08:02:17;;;;;;;34.45;20.52;;;;;;;13.22;100.00;100607.47;5093928;28;20161;-80
2022/10/15 08:04:44;;;;;;;32.90;20.08;;;;;;;13.17;100.00;100605.19;5130990;22;20045;-79
2022/10/15 08:07:09;;;;;;;30.20;19.38;;;;;;;13.09;100.00;100607.56;5033541;28;20060;-77
2022/10/15 08:09:34;;;;;;;32.08;20.63;;;;;;;12.88;100.00;100578.91;5016078;28;20072;-79
2022/10/15 08:12:00;;;;;;;34.17;20.73;;;;;;;12.95;100.00;100605.19;5033450;28;20026;-80
2022/10/15 08:14:26;;;;;;;31.65;19.95;;;;;;;12.95;100.00;100592.22;5033500;28;20026;-77
2022/10/15 08:16:51;;;;;;;33.33;20.85;;;;;;;12.96;100.00;100593.88;5033445;28;20444;-78
2022/10/15 08:19:16;;;;;;;31.08;20.33;;;;;;;13.08;100.00;100596.38;5033452;28;20075;-79
2022/10/15 08:21:43;;;;;;;33.35;20.00;;;;;;;13.20;100.00;100592.03;5033389;28;20104;-80
2022/10/15 08:24:08;;;;;;;31.92;18.88;;;;;;;13.35;100.00;100597.78;5033634;28;20021;-78
2022/10/15 08:26:34;;;;;;;33.42;19.35;;;;;;;13.47;100.00;100583.88;5033519;28;20079;-78
2022/10/15 08:29:00;;;;;;;29.55;18.80;;;;;;;13.69;100.00;100596.78;5039809;23;20485;-79
2022/10/15 08:31:25;;;;;;;28.50;17.88;;;;;;;13.76;100.00;100579.78;5032849;28;20123;-80
2022/10/15 08:33:51;;;;;;;27.50;16.75;;;;;;;13.97;100.00;100600.59;5011417;28;20425;-80
2022/10/15 08:36:17;;;;;;;24.02;15.90;;;;;;;14.10;100.00;100591.78;5011664;28;20411;-76
2022/10/15 08:38:42;;;;;;;23.52;15.18;;;;;;;14.19;100.00;100588.44;5011494;28;20050;-78
2022/10/15 08:41:21;;;;;;;23.65;14.57;;;;;;;14.23;100.00;100580.28;5011558;28;20025;-78
2022/10/15 08:43:47;;;;;;;22.90;14.57;;;;;;;14.16;100.00;100565.31;5011231;28;20134;-77
2022/10/15 08:46:19;;;;;;;21.00;13.18;;;;;;;14.13;100.00;100570.75;5340520;23;20060;-78
2022/10/15 08:48:52;;;;;;;18.95;12.73;;;;;;;14.22;100.00;100581.22;5011880;28;20044;-77
2022/10/15 08:51:26;;;;;;;23.42;13.00;;;;;;;14.28;100.00;100580.72;5013805;28;20385;-79
2022/10/15 08:53:59;;;;;;;17.25;11.82;;;;;;;14.19;100.00;100558.09;5013657;28;20034;-77
2022/10/15 08:56:35;;;;;;;18.73;11.30;;;;;;;14.39;100.00;100579.00;5013333;28;20026;-81
2022/10/15 08:59:19;;;;;;;17.58;10.82;;;;;;;14.53;100.00;100569.13;5013082;28;20092;-81
2022/10/15 09:01:56;;;;;;;19.30;9.80;;;;;;;14.64;100.00;100569.06;5013293;28;20121;-77
2022/10/15 09:04:29;;;;;;;15.25;9.77;;;;;;;14.75;100.00;100550.00;5013331;28;20032;-79
2022/10/15 09:07:17;;;;;;;13.98;9.15;;;;;;;14.82;100.00;100552.88;5013405;28;20077;-78
2022/10/15 09:09:57;;;;;;;14.32;8.25;;;;;;;14.87;100.00;100556.72;5013249;28;20045;-77
2022/10/15 09:12:52;;;;;;;14.02;8.50;;;;;;;14.91;100.00;100550.31;4995467;28;20029;-78
2022/10/15 09:15:20;;;;;;;14.77;8.70;;;;;;;14.74;100.00;100532.72;5013017;28;20030;-73
2022/10/15 09:17:47;;;;;;;17.02;8.85;;;;;;;14.73;100.00;100543.25;5013258;28;20022;-76
2022/10/15 09:20:38;;;;;;;14.73;8.73;;;;;;;14.68;100.00;100540.22;5013222;28;20022;-76
2022/10/15 09:23:16;;;;;;;13.43;8.30;;;;;;;14.73;100.00;100538.88;5012559;28;20045;-79
2022/10/15 09:25:48;;;;;;;12.70;8.20;;;;;;;14.77;100.00;100542.06;5013182;28;20112;-80
2022/10/15 09:28:18;;;;;;;15.90;9.05;;;;;;;14.73;100.00;100538.06;5012826;28;20381;-80
2022/10/15 09:30:49;;;;;;;14.17;8.70;;;;;;;14.70;100.00;100536.53;5013229;28;20034;-80
2022/10/15 09:33:26;;;;;;;13.23;8.80;;;;;;;14.68;100.00;100535.84;5013387;28;20091;-77
2022/10/15 09:36:01;;;;;;;12.52;7.93;;;;;;;14.44;100.00;100517.91;5012945;28;20038;-75
2022/10/15 09:38:54;;;;;;;14.60;8.85;;;;;;;14.56;100.00;100534.31;5013397;28;20144;-79
2022/10/15 09:41:38;;;;;;;13.65;7.72;;;;;;;14.62;100.00;100525.97;5013015;28;20470;-78
2022/10/15 09:44:12;;;;;;;16.00;9.90;;;;;;;13.72;100.00;100380.31;5040810;23;20478;-78
2022/10/15 09:46:49;;;;;;;15.95;9.10;;;;;;;14.66;100.00;100508.34;5036738;28;20079;-81
2022/10/15 09:49:19;;;;;;;19.73;11.90;;;;;;;14.76;100.00;100519.63;5018879;28;20446;-79
2022/10/15 09:52:23;;;;;;;18.65;12.27;;;;;;;14.82;100.00;100522.50;5036488;28;20022;-78
2022/10/15 09:55:15;;;;;;;19.15;11.40;;;;;;;14.81;100.00;100517.44;5036318;28;20029;-78
2022/10/15 09:57:44;;;;;;;;;;;;;;;14.77;100.00;100516.06;5036754;28;20385;-79
2022/10/15 10:00:12;;;;;;;21.33;11.82;;;;;;;14.51;100.00;100498.28;5036319;28;19920;-80
2022/10/15 10:02:38;;;;;;;18.08;10.93;;;;;;;14.64;100.00;100505.88;5036375;28;20418;-79
2022/10/15 10:05:27;;;;;;;17.63;9.73;;;;;;;14.67;100.00;100513.41;5036480;28;20155;-79
2022/10/15 10:08:20;;;;;;;17.17;10.15;;;;;;;14.41;100.00;100481.00;5038382;23;20053;-78
2022/10/15 10:10:54;;;;;;;15.30;9.23;;;;;;;14.12;100.00;100436.69;5016043;28;20018;-79
2022/10/15 10:13:39;;;;;;;16.33;9.23;;;;;;;13.60;100.00;100352.81;4998405;28;20026;-79
2022/10/15 10:16:15;;;;;;;15.25;9.35;;;;;;;13.45;100.00;100318.56;5016358;28;20492;-79
2022/10/15 10:18:49;;;;;;;15.15;9.80;;;;;;;14.56;100.00;100484.94;5016422;28;20034;-79
2022/10/15 10:21:33;;;;;;;14.20;8.23;;;;;;;14.73;100.00;100499.88;5016030;28;20389;-79
2022/10/15 10:24:17;;;;;;;15.98;8.80;;;;;;;14.62;100.00;100482.63;5016079;28;20397;-79
2022/10/15 10:26:43;;;;;;;14.88;9.05;;;;;;;14.80;100.00;100506.22;5014675;28;20061;-79
2022/10/15 10:29:17;;;;;;;13.43;7.75;;;;;;;14.73;100.00;100486.88;5015748;28;20480;-80
2022/10/15 10:31:43;;;;;;;12.13;7.60;;;;;;;14.77;100.00;100490.06;5015495;28;20442;-79
2022/10/15 10:34:16;;;;;;;12.50;7.10;;;;;;;14.88;100.00;100503.78;5016135;28;20026;-78
2022/10/15 10:36:41;;;;;;;13.18;7.50;;;;;;;14.84;100.00;100481.59;5015747;28;20018;-79
2022/10/15 10:39:12;;;;;;;11.45;6.65;;;;;;;15.08;100.00;100506.44;5015912;28;20030;-79
2022/10/15 10:41:54;;;;;;;10.50;6.38;;;;;;;15.12;100.00;100508.63;5015883;28;20034;-77
2022/10/15 10:44:33;;;;;;;11.85;6.47;;;;;;;15.06;100.00;100514.38;5015584;28;20026;-79
2022/10/15 10:47:04;;;;;;;9.93;5.70;;;;;;;14.98;100.00;100509.00;5015875;28;20033;-78
2022/10/15 10:49:31;;;;;;;8.80;5.53;;;;;;;14.96;100.00;100500.53;5015318;28;20030;-79
2022/10/15 10:51:57;;;;;;;8.65;5.88;;;;;;;15.06;100.00;100506.56;5015658;28;20064;-79
2022/10/15 10:54:23;;;;;;;10.10;5.10;;;;;;;14.97;100.00;100483.97;5014505;28;20451;-78
2022/10/15 10:56:49;;;;;;;7.00;4.47;;;;;;;14.99;100.00;100483.81;5015289;28;20428;-78
2022/10/15 10:59:20;;;;;;;7.20;4.13;;;;;;;15.12;100.00;100506.03;5015280;28;20061;-77
2022/10/15 11:01:46;;;;;;;5.82;3.58;;;;;;;15.02;100.00;100488.75;5015051;28;20037;-77
2022/10/15 11:04:40;;;;;;;5.10;3.70;;;;;;;15.14;100.00;100496.34;5015154;28;20034;-79
2022/10/15 11:07:16;;;;;;;5.05;3.95;;;;;;;15.00;100.00;100475.88;5015183;28;20030;-76
2022/10/15 11:10:02;;;;;;;6.50;4.07;;;;;;;15.08;100.00;100483.03;5014919;28;20042;-76
2022/10/15 11:12:34;;;;;;;5.70;3.90;;;;;;;15.15;100.00;100492.78;5014861;28;20371;-77
2022/10/15 11:15:39;;;;;;;5.43;4.40;;;;;;;15.26;100.00;100493.59;5014824;28;20026;-77
2022/10/15 11:18:31;;;;;;;8.05;4.57;;;;;;;15.35;100.00;100485.00;5014629;28;20095;-79
2022/10/15 11:21:21;;;;;;;6.93;4.57;;;;;;;15.47;100.00;100491.72;5015059;28;20028;-78